createdAt,value
2023-03-21T00:03:59.561Z,6.07
2023-03-21T00:09:00.965Z,5.50
2023-03-21T00:14:04.835Z,6.20
2023-03-21T00:19:06.918Z,6.88
2023-03-21T00:24:08.492Z,5.43
2023-03-21T00:29:09.944Z,5.63
2023-03-21T00:39:17.871Z,5.10
2023-03-21T00:44:19.333Z,5.22
2023-03-21T00:49:20.979Z,5.25
2023-03-21T00:54:22.396Z,5.10
2023-03-21T00:59:23.850Z,5.32
2023-03-21T01:04:26.996Z,5.00
2023-03-21T01:09:28.369Z,4.65
2023-03-21T01:14:29.827Z,5.00
2023-03-21T01:19:44.741Z,4.93
2023-03-21T01:24:56.943Z,5.15
2023-03-21T01:35:04.296Z,5.50
2023-03-21T01:40:06.325Z,5.97
2023-03-21T01:45:27.738Z,5.97
2023-03-21T01:50:29.300Z,6.00
2023-03-21T01:55:31.359Z,5.97
2023-03-21T02:00:33.604Z,7.00
2023-03-21T02:05:40.266Z,7.07
2023-03-21T02:10:43.643Z,8.75
2023-03-21T02:15:49.890Z,9.90
2023-03-21T02:20:54.411Z,10.65
2023-03-21T02:26:14.388Z,10.07
2023-03-21T02:31:19.677Z,9.27
2023-03-21T02:36:27.014Z,10.20
2023-03-21T02:41:40.477Z,9.80
2023-03-21T02:47:05.469Z,9.77
2023-03-21T02:52:17.043Z,9.38
2023-03-21T02:57:31.330Z,9.63
2023-03-21T03:02:35.458Z,8.88
2023-03-21T03:07:42.236Z,9.20
2023-03-21T03:12:49.579Z,9.52
2023-03-21T03:18:11.187Z,9.70
2023-03-21T03:23:12.547Z,9.25
2023-03-21T03:28:15.954Z,8.50
2023-03-21T03:33:17.940Z,8.45
2023-03-21T03:38:21.626Z,7.90
2023-03-21T03:43:26.559Z,8.95
2023-03-21T03:48:27.965Z,7.72
2023-03-21T03:53:32.493Z,7.97
2023-03-21T03:58:44.827Z,7.57
2023-03-21T04:03:53.044Z,8.80
2023-03-21T04:09:03.480Z,8.52
2023-03-21T04:14:07.070Z,8.23
2023-03-21T04:19:08.890Z,8.95
2023-03-21T04:24:11.964Z,8.82
2023-03-21T04:29:13.335Z,8.40
2023-03-21T04:34:14.695Z,9.80
2023-03-21T04:39:16.791Z,10.23
2023-03-21T04:44:18.579Z,10.30
2023-03-21T04:49:20.020Z,10.63
2023-03-21T04:54:21.559Z,11.18
2023-03-21T04:59:22.894Z,11.40
2023-03-21T05:04:24.645Z,11.10
2023-03-21T05:09:26.366Z,10.85
2023-03-21T05:14:28.382Z,10.88
2023-03-21T05:19:40.381Z,11.20
2023-03-21T05:24:41.904Z,11.63
2023-03-21T05:29:43.454Z,12.27
2023-03-21T05:34:44.846Z,11.95
2023-03-21T05:39:46.235Z,13.18
2023-03-21T05:44:47.969Z,12.60
2023-03-21T05:49:49.902Z,12.73
2023-03-21T05:54:51.385Z,12.20
2023-03-21T05:59:52.737Z,11.25
2023-03-21T06:04:54.079Z,11.25
2023-03-21T06:09:55.529Z,10.88
2023-03-21T06:14:56.913Z,11.00
2023-03-21T06:20:01.124Z,10.57
2023-03-21T06:25:03.042Z,10.20
2023-03-21T06:30:04.904Z,10.02
2023-03-21T06:35:06.657Z,10.82
2023-03-21T06:40:09.613Z,12.60
2023-03-21T06:45:11.572Z,12.68
2023-03-21T06:50:13.075Z,12.82
2023-03-21T06:55:14.485Z,13.02
2023-03-21T07:00:16.111Z,14.25
2023-03-21T07:05:17.715Z,13.10
2023-03-21T07:10:19.268Z,13.98
2023-03-21T07:15:20.757Z,13.15
2023-03-21T07:20:22.198Z,12.60
2023-03-21T07:25:23.611Z,12.38
2023-03-21T07:30:25.331Z,11.73
2023-03-21T07:35:26.789Z,11.23
2023-03-21T07:40:28.214Z,11.82
2023-03-21T07:45:29.679Z,12.07
2023-03-21T07:50:31.412Z,12.95
2023-03-21T07:55:35.086Z,13.55
2023-03-21T08:00:36.552Z,13.05
2023-03-21T08:05:38.404Z,13.07
2023-03-21T08:10:41.916Z,11.90
2023-03-21T08:15:43.489Z,12.23
2023-03-21T08:20:44.854Z,13.65
2023-03-21T08:25:46.886Z,12.85
2023-03-21T08:30:48.902Z,11.27
2023-03-21T08:35:50.432Z,11.90
2023-03-21T08:40:51.864Z,10.63
2023-03-21T08:45:53.282Z,10.20
2023-03-21T08:50:55.868Z,9.60
2023-03-21T08:55:57.323Z,10.73
2023-03-21T09:00:58.694Z,8.73
2023-03-21T09:06:00.777Z,8.88
2023-03-21T09:11:02.248Z,8.55
2023-03-21T09:16:05.180Z,8.52
2023-03-21T09:21:12.750Z,8.73
2023-03-21T09:26:14.299Z,8.70
2023-03-21T09:31:22.880Z,8.82
2023-03-21T09:36:27.256Z,9.00
2023-03-21T09:41:35.065Z,9.27
2023-03-21T09:46:45.670Z,10.02
2023-03-21T09:51:52.788Z,10.90
2023-03-21T09:57:00.998Z,9.75
2023-03-21T10:02:03.339Z,10.05
2023-03-21T10:07:04.911Z,10.10
2023-03-21T10:12:08.346Z,9.40
2023-03-21T10:17:15.865Z,9.50
2023-03-21T10:22:17.266Z,10.13
2023-03-21T10:27:18.792Z,9.25
2023-03-21T10:32:22.884Z,9.32
2023-03-21T10:37:26.078Z,8.85
2023-03-21T10:42:29.336Z,8.32
2023-03-21T10:47:33.926Z,8.57
2023-03-21T10:52:36.550Z,8.75
2023-03-21T10:57:38.402Z,7.35
2023-03-21T11:02:40.801Z,7.65
2023-03-21T11:07:42.288Z,8.00
2023-03-21T11:12:46.975Z,8.07
2023-03-21T11:17:48.351Z,8.10
2023-03-21T11:22:49.912Z,8.15
2023-03-21T11:27:55.571Z,8.57
2023-03-21T11:32:58.109Z,8.40
2023-03-21T11:38:00.656Z,8.45
2023-03-21T11:43:24.784Z,9.93
2023-03-21T11:48:26.887Z,9.70
2023-03-21T11:53:36.636Z,10.45
2023-03-21T12:03:48.767Z,10.48
2023-03-21T12:08:57.725Z,10.13
2023-03-21T12:14:13.213Z,10.07
2023-03-21T12:19:14.646Z,10.77
2023-03-21T12:24:20.718Z,9.60
2023-03-21T12:29:25.929Z,10.85
2023-03-21T12:34:53.802Z,11.32
2023-03-21T12:39:58.615Z,10.40
2023-03-21T12:45:18.671Z,11.68
2023-03-21T12:50:26.302Z,10.90
2023-03-21T12:55:29.448Z,10.95
2023-03-21T13:00:33.695Z,10.38
2023-03-21T13:05:38.904Z,11.10
2023-03-21T13:10:42.060Z,11.25
2023-03-21T13:15:59.554Z,11.48
2023-03-21T13:21:03.427Z,9.65
2023-03-21T13:26:08.629Z,11.20
2023-03-21T13:31:16.404Z,10.20
2023-03-21T13:36:25.817Z,9.90
2023-03-21T13:41:32.048Z,9.75
2023-03-21T13:46:54.404Z,6.80
2023-03-21T13:51:58.660Z,5.28
2023-03-21T13:57:01.544Z,4.68
2023-03-21T14:02:02.967Z,5.88
2023-03-21T14:07:09.813Z,6.35
2023-03-21T14:12:14.578Z,6.18
2023-03-21T14:17:30.423Z,6.35
2023-03-21T14:22:31.868Z,5.70
2023-03-21T14:27:34.124Z,6.10
2023-03-21T14:32:35.670Z,6.55
2023-03-21T14:37:38.738Z,6.90
2023-03-21T14:42:41.112Z,6.82
2023-03-21T14:47:53.979Z,7.00
2023-03-21T14:52:55.423Z,5.93
2023-03-21T14:57:56.982Z,6.18
2023-03-21T15:02:59.341Z,5.97
2023-03-21T15:08:02.373Z,6.65
2023-03-21T15:13:14.038Z,6.85
2023-03-21T15:18:18.009Z,7.40
2023-03-21T15:23:39.657Z,7.60
2023-03-21T15:28:41.399Z,8.13
2023-03-21T15:33:45.589Z,8.10
2023-03-21T15:38:48.931Z,8.18
2023-03-21T15:44:02.600Z,8.00
2023-03-21T15:49:08.288Z,6.78
2023-03-21T15:54:15.890Z,4.80
2023-03-21T15:59:20.905Z,4.45
2023-03-21T16:04:23.757Z,3.50
2023-03-21T16:09:26.191Z,4.25
2023-03-21T16:14:27.924Z,4.20
2023-03-21T16:19:30.172Z,4.18
2023-03-21T16:24:31.558Z,4.00
2023-03-21T16:29:32.991Z,3.90
2023-03-21T16:34:34.389Z,3.60
2023-03-21T16:39:35.859Z,3.80
2023-03-21T16:44:39.492Z,3.42
2023-03-21T16:49:42.126Z,3.15
2023-03-21T16:54:43.778Z,3.30
2023-03-21T16:59:45.231Z,3.35
2023-03-21T17:04:46.862Z,2.95
2023-03-21T17:09:48.258Z,3.45
2023-03-21T17:14:49.669Z,3.70
2023-03-21T17:19:51.141Z,3.42
2023-03-21T17:24:52.592Z,3.15
2023-03-21T17:29:54.050Z,2.78
2023-03-21T17:34:55.604Z,2.63
2023-03-21T17:39:56.969Z,2.55
2023-03-21T17:44:58.417Z,2.05
2023-03-21T17:49:59.867Z,2.40
2023-03-21T17:55:01.522Z,2.63
2023-03-21T18:00:05.221Z,2.72
2023-03-21T18:05:07.440Z,2.70
2023-03-21T18:10:15.323Z,2.40
2023-03-21T18:15:18.926Z,2.45
2023-03-21T18:20:22.569Z,2.35
2023-03-21T18:25:25.043Z,2.10
2023-03-21T18:30:50.128Z,2.33
2023-03-21T18:35:55.911Z,1.98
2023-03-21T18:40:59.844Z,1.52
2023-03-21T18:46:01.463Z,1.92
2023-03-21T18:51:03.448Z,1.48
2023-03-21T18:56:09.878Z,1.40
2023-03-21T19:01:12.612Z,1.50
2023-03-21T19:06:16.270Z,1.77
2023-03-21T19:11:21.190Z,1.80
2023-03-21T19:16:26.922Z,1.70
2023-03-21T19:21:31.633Z,1.92
2023-03-21T19:26:33.065Z,1.67
2023-03-21T19:31:34.479Z,2.15
2023-03-21T19:36:36.060Z,1.65
2023-03-21T19:41:39.969Z,1.85
2023-03-21T19:46:42.658Z,2.00
2023-03-21T19:51:44.169Z,2.05
2023-03-21T19:56:48.162Z,2.03
2023-03-21T20:01:52.985Z,1.90
2023-03-21T20:07:00.029Z,2.83
2023-03-21T20:12:02.560Z,2.65
2023-03-21T20:17:04.473Z,2.50
2023-03-21T20:22:12.520Z,2.10
2023-03-21T20:27:25.117Z,2.35
2023-03-21T20:32:27.333Z,2.17
2023-03-21T20:37:28.736Z,2.47
2023-03-21T20:42:30.137Z,1.90
2023-03-21T20:47:32.252Z,2.70
2023-03-21T20:52:57.793Z,2.17
2023-03-21T20:57:55.297Z,2.90
2023-03-21T21:02:58.030Z,2.65
2023-03-21T21:08:00.811Z,3.70
2023-03-21T21:13:02.272Z,2.40
2023-03-21T21:18:06.404Z,2.97
2023-03-21T21:23:09.635Z,3.13
2023-03-21T21:28:11.814Z,3.22
2023-03-21T21:33:18.014Z,2.80
2023-03-21T21:38:19.850Z,2.80
2023-03-21T21:43:21.354Z,3.20
2023-03-21T21:48:23.179Z,4.15
2023-03-21T21:53:28.155Z,4.30
2023-03-21T21:58:33.703Z,3.60
2023-03-21T22:03:36.564Z,3.50
2023-03-21T22:08:38.272Z,4.15
2023-03-21T22:13:39.698Z,4.10
2023-03-21T22:18:43.170Z,4.90
2023-03-21T22:23:44.889Z,4.75
2023-03-21T22:28:46.325Z,4.53
2023-03-21T22:33:48.682Z,4.63
2023-03-21T22:38:50.082Z,4.18
2023-03-21T22:43:51.510Z,3.53
2023-03-21T22:48:52.899Z,3.65
2023-03-21T22:53:55.977Z,3.40
2023-03-21T22:59:00.187Z,3.60
2023-03-21T23:04:01.619Z,4.40
2023-03-21T23:09:03.299Z,2.75
2023-03-21T23:14:08.180Z,3.28
2023-03-21T23:19:10.448Z,2.30
2023-03-21T23:24:12.207Z,2.35
2023-03-21T23:29:14.017Z,2.33
2023-03-21T23:34:15.416Z,2.13
2023-03-21T23:39:18.500Z,2.10
2023-03-21T23:44:19.950Z,2.25
2023-03-21T23:49:21.321Z,1.70
2023-03-21T23:54:22.758Z,2.00
2023-03-21T23:59:25.035Z,2.00
